Time;durP1;ratioP1;P1;durP2;ratioP2;P2;SDS_P1;SDS_P2;PMS_P1;PMS_P2;Temp;Humidity;BMP_temperature;BMP_pressure;BME280_temperature;BME280_humidity;BME280_pressure;Samples;Min_cycle;Max_cycle;Signal;HPM_P1;HPM_P2
2022/05/29 00:02:16;;;;;;;9.32;4.38;;;14.20;99.90;;;14.68;64.32;101783.25;4840806;29;20073;-66
2022/05/29 00:04:44;;;;;;;11.00;4.90;;;14.20;99.90;;;14.75;63.81;101774.31;4841086;29;20058;-66
2022/05/29 00:07:17;;;;;;;13.30;4.78;;;14.30;99.90;;;14.11;63.85;101664.66;4841296;29;20551;-66
2022/05/29 00:09:49;;;;;;;10.48;4.60;;;14.30;99.90;;;14.51;64.41;101769.16;4841430;29;20077;-66
2022/05/29 00:12:21;;;;;;;11.95;4.57;;;14.10;99.90;;;14.52;64.31;101770.91;4840991;29;20077;-66
2022/05/29 00:14:50;;;;;;;10.73;4.90;;;14.10;99.90;;;14.51;64.94;101769.16;4842441;29;20069;-66
2022/05/29 00:17:20;;;;;;;11.05;4.57;;;14.10;99.90;;;14.67;64.87;101767.28;4844005;29;20045;-66
2022/05/29 00:19:49;;;;;;;10.40;4.13;;;14.20;99.90;;;14.60;64.48;101778.84;4844314;29;20161;-66
2022/05/29 00:22:20;;;;;;;14.75;5.00;;;14.20;99.90;;;14.69;63.92;101773.50;4843935;29;20509;-66
2022/05/29 00:24:51;;;;;;;16.67;4.78;;;14.30;99.90;;;14.48;64.26;101767.41;4843951;29;20489;-66
2022/05/29 00:27:20;;;;;;;15.73;4.43;;;14.10;99.90;;;14.54;64.46;101766.47;4844005;29;20086;-66
2022/05/29 00:29:48;;;;;;;14.73;4.75;;;14.20;99.90;;;14.55;64.64;101760.28;4827564;29;20061;-66
2022/05/29 00:32:17;;;;;;;15.90;4.47;;;14.20;99.90;;;14.55;63.71;101762.03;4843826;29;20390;-66
2022/05/29 00:34:46;;;;;;;10.88;4.18;;;14.20;99.90;;;14.50;63.32;101734.56;4845301;29;20050;-66
2022/05/29 00:37:14;;;;;;;12.90;4.32;;;14.30;99.90;;;14.53;63.45;101754.06;4844992;29;20133;-66
2022/05/29 00:39:43;;;;;;;9.38;4.53;;;14.30;99.90;;;14.63;62.63;101761.09;4844765;29;20129;-66
2022/05/29 00:42:15;;;;;;;8.75;4.07;;;14.30;99.90;;;14.55;62.79;101754.03;4844736;29;20050;-66
2022/05/29 00:44:45;;;;;;;12.23;4.22;;;14.20;99.90;;;14.57;62.17;101752.25;4844951;29;20046;-66
2022/05/29 00:47:17;;;;;;;7.40;4.50;;;14.30;99.90;;;14.39;62.22;101724.88;4844861;29;20080;-66
2022/05/29 00:49:48;;;;;;;9.52;4.00;;;14.20;99.90;;;14.42;61.74;101747.91;4844605;29;20535;-66
2022/05/29 00:52:21;;;;;;;14.40;4.80;;;14.10;99.90;;;14.40;61.70;101747.06;4844628;29;20102;-66
2022/05/29 00:54:54;;;;;;;15.07;4.32;;;14.10;99.90;;;14.41;61.34;101740.81;4844807;29;20049;-66
2022/05/29 00:57:29;;;;;;;12.75;4.40;;;14.10;99.90;;;14.30;61.89;101742.69;4844327;29;20470;-66
2022/05/29 01:00:11;;;;;;;10.18;4.63;;;14.00;99.90;;;14.52;61.28;101738.09;4844512;29;20412;-66
2022/05/29 01:02:40;;;;;;;9.60;4.20;;;14.10;99.90;;;14.55;61.09;101736.31;4844662;29;20046;-66
2022/05/29 01:05:13;;;;;;;15.20;4.35;;;14.10;99.90;;;14.48;60.58;101719.47;4844283;29;20049;-66
2022/05/29 01:07:44;;;;;;;11.88;4.55;;;14.20;99.90;;;14.50;60.20;101711.47;4843317;29;20058;-66
2022/05/29 01:10:13;;;;;;;9.55;4.05;;;14.30;99.90;;;14.63;59.74;101723.81;4842285;29;20515;-66
2022/05/29 01:12:53;;;;;;;10.90;4.18;;;14.20;99.90;;;14.69;59.23;101725.56;4843247;29;20729;-66
2022/05/29 01:15:31;;;;;;;10.88;4.28;;;14.30;99.90;;;14.57;59.62;101718.53;4843604;29;20152;-66
2022/05/29 01:18:18;;;;;;;11.68;4.28;;;14.30;99.90;;;14.60;59.68;101713.19;4843489;29;20084;-66
2022/05/29 01:21:08;;;;;;;11.68;4.50;;;14.30;99.90;;;14.60;60.33;101709.63;4843616;29;20042;-66
2022/05/29 01:24:20;;;;;;;10.50;4.40;;;14.20;99.90;;;14.64;61.61;101711.38;4843083;29;20117;-66
2022/05/29 01:27:26;;;;;;;11.10;4.32;;;14.20;99.90;;;14.67;62.47;101706.03;4841362;29;20445;-66
2022/05/29 01:30:05;;;;;;;14.50;4.65;;;14.30;99.90;;;14.56;62.63;101718.53;4842956;29;20118;-66
2022/05/29 01:32:42;;;;;;;18.42;4.95;;;14.30;99.90;;;14.61;62.31;101683.00;4842911;29;20460;-66
2022/05/29 01:35:17;;;;;;;10.40;4.60;;;14.30;99.90;;;14.71;62.29;101702.47;4842915;29;20487;-66
2022/05/29 01:37:52;;;;;;;11.98;4.40;;;14.30;99.90;;;14.48;62.83;101706.16;4843255;29;20515;-66
2022/05/29 01:40:34;;;;;;;14.95;4.82;;;14.10;99.90;;;14.21;62.98;101685.00;4843218;29;20533;-66
2022/05/29 01:43:16;;;;;;;17.42;5.28;;;14.00;99.90;;;14.01;63.67;101692.25;4842907;29;20082;-66
2022/05/29 01:45:56;;;;;;;10.10;4.40;;;13.80;99.90;;;14.10;64.16;101670.91;4842784;29;20057;-66
2022/05/29 01:48:37;;;;;;;16.73;4.60;;;13.80;99.90;;;13.87;65.27;101688.75;4842690;29;20046;-66
2022/05/29 01:51:13;;;;;;;15.70;4.50;;;13.60;99.90;;;13.87;65.98;101677.22;4842660;29;20081;-66
2022/05/29 01:53:46;;;;;;;14.40;4.75;;;13.60;99.90;;;13.95;65.63;101683.41;4842894;29;20070;-66
2022/05/29 01:56:21;;;;;;;16.83;5.57;;;13.60;99.90;;;14.10;66.00;101683.31;4842496;29;20092;-66
2022/05/29 01:58:55;;;;;;;17.73;4.78;;;13.70;99.90;;;14.02;66.72;101677.16;4842659;29;20126;-66
2022/05/29 02:01:31;;;;;;;13.93;4.75;;;13.70;99.90;;;13.99;66.45;101675.41;4842862;29;20144;-66
2022/05/29 02:04:06;;;;;;;13.57;5.10;;;13.60;99.90;;;14.04;66.85;101670.03;4842646;29;20381;-66
2022/05/29 02:09:28;;;;;;;9.80;4.37;;;13.70;99.90;;;14.20;66.50;101664.63;4842779;29;20058;-66
2022/05/29 02:12:01;;;;;;;12.27;4.35;;;13.90;99.90;;;14.11;66.43;101664.66;4842206;29;20474;-66
2022/05/29 02:14:35;;;;;;;20.33;4.72;;;13.80;99.90;;;14.14;66.95;101663.78;4842249;29;20054;-66
2022/05/29 02:17:13;;;;;;;12.57;4.32;;;13.80;99.90;;;14.22;67.33;101662.84;4842427;29;20096;-66
2022/05/29 02:19:48;;;;;;;14.77;4.55;;;13.80;99.90;;;14.45;67.10;101663.59;4842295;29;20070;-66
2022/05/29 02:22:23;;;;;;;14.05;5.10;;;14.00;99.90;;;14.43;66.98;101667.16;4842599;29;20106;-66
2022/05/29 02:25:07;;;;;;;14.10;4.35;;;14.10;99.90;;;14.59;66.58;101660.84;4842072;29;20058;-66
2022/05/29 02:27:43;;;;;;;14.40;5.07;;;14.20;99.90;;;14.48;67.31;101667.13;4841806;29;20128;-66
2022/05/29 02:30:12;;;;;;;12.77;4.93;;;14.10;99.90;;;14.55;67.61;101661.75;4842412;29;20058;-66
2022/05/29 02:32:54;;;;;;;13.02;4.63;;;14.20;99.90;;;14.60;66.52;101651.94;4842121;29;20136;-67
2022/05/29 02:35:27;;;;;;;12.82;4.55;;;14.20;99.90;;;14.56;66.96;101639.53;4842314;29;20098;-67
2022/05/29 02:38:02;;;;;;;9.05;4.32;;;14.20;99.90;;;14.52;67.78;101648.44;4840998;29;20137;-66
2022/05/29 02:40:40;;;;;;;14.75;4.93;;;14.20;99.90;;;14.54;66.40;101638.66;4841604;29;20042;-66
2022/05/29 02:43:19;;;;;;;12.07;4.78;;;14.20;99.90;;;14.70;65.79;101650.97;4841859;29;20378;-66
2022/05/29 02:45:54;;;;;;;15.05;4.05;;;14.30;99.90;;;14.59;65.38;101623.56;4841816;29;20519;-66
2022/05/29 02:48:34;;;;;;;13.30;4.28;;;14.40;99.90;;;14.46;65.34;101643.16;4841541;29;20092;-66
2022/05/29 02:51:08;;;;;;;11.73;4.68;;;14.30;99.90;;;14.44;65.28;101645.84;4841516;29;20488;-67
2022/05/29 02:53:36;;;;;;;12.27;4.10;;;14.30;99.90;;;14.69;64.95;101637.69;4841569;29;20120;-66
2022/05/29 02:56:06;;;;;;;9.85;4.15;;;14.40;99.90;;;14.66;64.77;101640.34;4841459;29;20445;-66
2022/05/29 02:58:36;;;;;;;12.07;4.03;;;14.40;99.90;;;14.50;65.05;101638.72;4841457;29;20056;-68
2022/05/29 03:01:21;;;;;;;15.45;4.30;;;14.30;99.90;;;14.53;65.20;101638.69;4841311;29;20054;-67
2022/05/29 03:04:28;;;;;;;10.98;4.70;;;14.30;99.90;;;14.70;65.65;101636.75;4841800;29;20050;-66
2022/05/29 03:07:05;;;;;;;13.95;4.30;;;14.40;99.90;;;14.76;65.94;101642.03;4841448;29;20058;-66
2022/05/29 03:09:58;;;;;;;11.90;4.63;;;14.50;99.90;;;14.75;66.02;101641.13;4841275;29;20054;-65
2022/05/29 03:12:41;;;;;;;14.73;5.07;;;14.50;99.90;;;14.50;68.11;101647.56;4841746;29;20073;-66
2022/05/29 03:15:25;;;;;;;13.00;5.78;;;14.40;99.90;;;14.63;69.41;101643.94;4841744;29;20137;-66
2022/05/29 03:18:16;;;;;;;11.27;4.75;;;14.40;99.90;;;14.56;70.13;101647.53;4825234;29;20485;-65
2022/05/29 03:21:02;;;;;;;14.95;4.57;;;14.30;99.90;;;14.62;70.13;101643.94;4841360;29;20056;-66
2022/05/29 03:23:41;;;;;;;10.20;4.80;;;14.30;99.90;;;14.58;70.36;101645.75;4841401;29;20054;-66
2022/05/29 03:26:23;;;;;;;10.25;4.90;;;14.30;99.90;;;14.53;70.38;101646.69;4841404;29;20503;-65
2022/05/29 03:28:59;;;;;;;12.00;4.88;;;14.30;99.90;;;14.49;70.60;101645.81;4841141;29;20080;-65
2022/05/29 03:31:30;;;;;;;10.52;4.80;;;14.20;99.90;;;14.45;70.95;101652.97;4841122;29;20086;-65
2022/05/29 03:33:59;;;;;;;10.15;4.70;;;14.20;99.90;;;14.40;71.07;101644.09;4841126;29;20058;-66
2022/05/29 03:36:29;;;;;;;10.18;4.72;;;14.10;99.90;;;14.27;71.27;101647.75;4841065;29;20128;-66
2022/05/29 03:38:58;;;;;;;10.18;4.32;;;14.00;99.90;;;14.16;71.71;101651.34;4840969;29;20050;-66
2022/05/29 03:41:32;;;;;;;9.48;4.10;;;13.90;99.90;;;14.20;72.38;101647.78;4841026;29;20096;-66
2022/05/29 03:44:01;;;;;;;7.53;4.10;;;13.90;99.90;;;14.23;72.89;101647.75;4841324;29;20081;-66
2022/05/29 03:46:29;;;;;;;6.68;3.67;;;13.90;99.90;;;14.20;72.74;101645.13;4841294;29;20049;-65
2022/05/29 03:48:57;;;;;;;7.85;4.43;;;13.90;99.90;;;14.19;72.78;101638.91;4841544;29;20044;-66
2022/05/29 03:51:26;;;;;;;6.18;3.45;;;13.90;99.90;;;14.15;72.82;101620.34;4844661;29;20129;-65
2022/05/29 03:53:55;;;;;;;5.03;3.53;;;13.90;99.90;;;14.19;73.10;101633.59;4845166;29;20140;-66
2022/05/29 03:56:24;;;;;;;11.52;3.90;;;13.90;99.90;;;14.19;73.14;101628.25;4844418;29;20061;-66
2022/05/29 03:58:54;;;;;;;7.18;3.60;;;13.90;99.90;;;14.21;73.09;101642.44;4844724;29;20054;-65
2022/05/29 04:01:23;;;;;;;8.25;3.88;;;13.90;99.90;;;14.03;73.63;101602.63;4844490;29;20105;-66
2022/05/29 04:03:54;;;;;;;8.82;4.28;;;13.90;99.90;;;14.17;74.10;101613.19;4844383;29;20487;-66
2022/05/29 04:06:24;;;;;;;6.13;3.85;;;13.90;99.90;;;13.84;73.91;101539.84;4828265;29;20472;-66
2022/05/29 04:14:30;;;;;;;10.95;4.00;;;13.80;99.90;;;14.19;75.77;101611.41;4844643;29;20057;-66
2022/05/29 04:16:58;;;;;;;7.00;3.80;;;13.80;99.90;;;14.32;75.22;101615.81;4844281;29;20038;-66
2022/05/29 04:19:27;;;;;;;10.23;4.25;;;13.90;99.90;;;14.37;74.97;101613.97;4844146;29;20042;-66
2022/05/29 04:21:55;;;;;;;10.05;4.80;;;14.00;99.90;;;13.88;74.34;101514.97;4844167;29;20049;-66
2022/05/29 04:24:25;;;;;;;8.75;4.40;;;14.00;99.90;;;14.10;74.92;101616.81;4844149;29;20136;-66
2022/05/29 04:26:54;;;;;;;11.43;4.38;;;13.90;99.90;;;14.08;75.49;101615.94;4842819;29;20091;-66
2022/05/29 04:29:22;;;;;;;8.05;4.15;;;13.80;99.90;;;14.25;75.80;101617.56;4844072;29;20494;-66
2022/05/29 04:34:37;;;;;;;7.32;4.05;;;13.80;99.90;;;14.12;75.82;101615.00;4843303;29;20520;-65
2022/05/29 04:37:06;;;;;;;10.00;4.35;;;13.80;99.90;;;14.05;77.41;101606.19;4844057;29;20133;-66
2022/05/29 04:39:36;;;;;;;7.80;4.28;;;13.70;99.90;;;14.14;77.08;101599.94;4843698;29;20137;-66
2022/05/29 04:42:06;;;;;;;8.45;4.20;;;13.80;99.90;;;13.86;77.19;101606.34;4843727;29;20049;-65
2022/05/29 04:44:34;;;;;;;9.55;4.40;;;13.60;99.90;;;13.76;77.75;101607.28;4843668;29;20060;-66
2022/05/29 04:47:04;;;;;;;8.85;4.25;;;13.40;99.90;;;14.10;77.34;101596.41;4842565;29;20164;-66
2022/05/29 04:49:32;;;;;;;7.25;4.00;;;13.60;99.90;;;14.01;76.79;101601.81;4844120;29;20042;-65
2022/05/29 04:52:01;;;;;;;6.88;4.05;;;13.60;99.90;;;14.02;75.87;101605.31;4843543;29;20414;-65
2022/05/29 04:54:29;;;;;;;12.90;4.93;;;13.70;99.90;;;13.93;76.12;101598.31;4843429;29;20393;-66
2022/05/29 04:56:59;;;;;;;9.63;4.32;;;13.60;99.90;;;14.06;76.16;101599.09;4843198;29;20544;-66
2022/05/29 04:59:27;;;;;;;7.07;3.97;;;13.70;99.90;;;14.17;76.16;101594.56;4843318;29;20136;-66
2022/05/29 05:01:59;;;;;;;9.00;4.07;;;13.80;99.90;;;14.19;76.26;101591.00;4842294;29;20060;-66
2022/05/29 05:04:27;;;;;;;9.43;4.20;;;13.90;99.90;;;14.18;77.24;101580.38;4843233;29;20046;-66
2022/05/29 05:06:58;;;;;;;9.82;4.38;;;13.90;99.90;;;14.10;76.64;101588.44;4843209;29;20362;-68
2022/05/29 05:09:27;;;;;;;8.68;4.00;;;13.80;99.90;;;14.23;75.87;101594.53;4843180;29;20046;-66
2022/05/29 05:11:58;;;;;;;7.65;4.05;;;13.90;99.90;;;14.14;75.82;101570.66;4843320;29;20063;-66
2022/05/29 05:14:29;;;;;;;8.25;4.18;;;14.00;99.90;;;14.29;76.10;101591.84;4843154;29;20125;-67
2022/05/29 05:16:58;;;;;;;8.75;4.40;;;14.00;99.90;;;14.48;75.93;101593.47;4826705;29;20556;-66
2022/05/29 05:19:26;;;;;;;9.45;4.32;;;14.20;99.90;;;14.51;75.28;101604.09;4843222;29;20468;-67
2022/05/29 05:21:54;;;;;;;8.20;4.88;;;14.20;99.90;;;14.52;75.09;101594.34;4843161;29;20079;-66
2022/05/29 05:24:23;;;;;;;10.02;4.32;;;14.20;99.90;;;14.56;75.23;101601.38;4842904;29;20560;-66
2022/05/29 05:26:51;;;;;;;9.25;4.72;;;14.20;99.90;;;14.60;75.24;101598.69;4842803;29;20054;-66
2022/05/29 05:29:22;;;;;;;10.10;4.45;;;14.30;99.90;;;14.58;75.24;101589.81;4843052;29;20155;-66
2022/05/29 05:31:51;;;;;;;15.50;4.40;;;14.30;99.90;;;14.76;74.59;101594.09;4842753;29;20106;-67
2022/05/29 05:34:19;;;;;;;11.48;4.40;;;14.40;99.90;;;14.84;73.60;101595.78;4842656;29;20141;-66
2022/05/29 05:36:47;;;;;;;7.68;3.90;;;14.50;99.90;;;14.87;73.18;101592.19;4842644;29;20105;-66
2022/05/29 05:39:16;;;;;;;9.80;4.60;;;14.50;99.90;;;14.91;72.98;101594.81;4842828;29;20129;-66
2022/05/29 05:41:49;;;;;;;8.68;4.30;;;14.60;99.90;;;14.87;72.26;101593.09;4842364;29;20130;-66
2022/05/29 05:44:17;;;;;;;8.05;4.45;;;14.60;99.90;;;14.70;72.39;101557.75;4842412;29;20046;-66
2022/05/29 05:46:49;;;;;;;10.43;4.15;;;14.60;99.90;;;14.89;71.82;101591.28;4842377;29;20048;-66
2022/05/29 05:49:18;;;;;;;9.02;4.30;;;14.60;99.90;;;15.00;72.05;101594.72;4826151;29;20531;-66
2022/05/29 05:51:47;;;;;;;10.80;4.03;;;14.70;99.90;;;15.05;71.93;101597.34;4842419;29;20169;-66
2022/05/29 05:54:16;;;;;;;8.43;4.18;;;14.80;99.90;;;15.15;71.37;101597.22;4842604;29;20069;-66
2022/05/29 05:56:47;;;;;;;9.82;4.30;;;14.80;99.90;;;15.07;70.64;101564.47;4841057;29;20125;-66
2022/05/29 05:59:16;;;;;;;9.38;4.25;;;14.90;99.90;;;15.06;70.02;101594.66;4842571;29;20120;-66
2022/05/29 06:01:44;;;;;;;11.95;4.97;;;14.80;99.90;;;15.07;69.65;101593.78;4842285;29;20499;-65
2022/05/29 06:04:14;;;;;;;10.73;4.40;;;14.80;99.90;;;15.04;69.01;101598.25;4842064;29;20078;-66
2022/05/29 06:06:42;;;;;;;10.68;4.20;;;14.70;99.90;;;15.01;69.82;101596.50;4842306;29;20162;-66
2022/05/29 06:09:11;;;;;;;8.15;4.55;;;14.70;99.90;;;15.05;70.28;101594.69;4842102;29;20527;-65
2022/05/29 06:11:39;;;;;;;11.35;4.93;;;14.70;99.90;;;15.11;70.63;101595.50;4841727;29;20058;-66
2022/05/29 06:14:08;;;;;;;11.32;4.40;;;14.80;99.90;;;15.16;71.07;101591.00;4842116;29;20065;-65
2022/05/29 06:16:37;;;;;;;12.13;4.88;;;14.80;99.90;;;15.09;70.70;101568.00;4842123;29;20162;-66
2022/05/29 06:19:06;;;;;;;10.93;4.85;;;14.90;99.90;;;15.27;71.00;101588.22;4842209;29;20054;-66
2022/05/29 06:21:36;;;;;;;11.88;4.60;;;14.90;99.90;;;15.33;71.62;101589.00;4842159;29;20050;-66
2022/05/29 06:24:05;;;;;;;11.68;5.05;;;15.00;99.90;;;15.20;69.96;101587.38;4842061;29;20256;-65
2022/05/29 06:26:34;;;;;;;9.00;4.72;;;15.00;99.90;;;15.38;70.01;101583.63;4841951;29;20105;-66
2022/05/29 06:29:02;;;;;;;13.52;4.75;;;15.00;99.90;;;15.49;69.44;101580.84;4841939;29;20072;-66
2022/05/29 06:31:31;;;;;;;11.18;4.88;;;15.10;99.90;;;15.54;69.60;101589.66;4841799;29;20050;-66
2022/05/29 06:33:59;;;;;;;10.60;4.45;;;15.20;99.90;;;15.42;69.21;101581.81;4841717;29;20050;-66
2022/05/29 06:36:28;;;;;;;8.07;4.03;;;15.10;99.90;;;15.37;69.28;101584.50;4825535;29;20114;-66
2022/05/29 06:38:59;;;;;;;11.73;4.28;;;15.00;99.90;;;15.30;68.86;101581.06;4841614;29;20163;-65
2022/05/29 06:41:29;;;;;;;13.75;5.30;;;15.10;99.90;;;15.35;68.70;101600.53;4841424;29;20054;-66
2022/05/29 06:43:57;;;;;;;9.65;4.07;;;15.10;99.90;;;14.98;69.35;101585.84;4841856;29;20409;-66
2022/05/29 06:46:25;;;;;;;7.57;4.18;;;14.90;99.90;;;14.85;70.65;101594.00;4841592;29;20244;-66
2022/05/29 06:48:54;;;;;;;9.93;4.30;;;14.70;99.90;;;14.87;71.35;101586.88;4841781;29;20482;-65
2022/05/29 06:51:23;;;;;;;8.27;4.13;;;14.70;99.90;;;14.22;71.80;101479.25;4841532;29;20116;-66
2022/05/29 06:53:55;;;;;;;11.25;4.65;;;14.60;99.90;;;14.89;71.84;101601.94;4841505;29;20397;-66
2022/05/29 06:56:25;;;;;;;7.32;3.95;;;14.70;99.90;;;14.64;72.60;101587.09;4841771;29;20054;-66
2022/05/29 06:58:55;;;;;;;7.72;4.00;;;14.50;99.90;;;14.33;74.59;101588.28;4840616;29;20142;-66
2022/05/29 07:07:03;;;;;;;9.60;3.95;;;13.80;99.90;;;14.25;76.85;101580.31;4841783;29;20049;-66
2022/05/29 07:09:34;;;;;;;7.45;3.97;;;13.90;99.90;;;14.38;77.78;101586.47;4841789;29;20140;-66
2022/05/29 07:12:09;;;;;;;5.28;4.10;;;14.00;99.90;;;14.36;77.54;101566.97;4825268;29;20164;-66
2022/05/29 07:14:41;;;;;;;8.95;4.35;;;14.20;99.90;;;14.81;76.23;101584.25;4841409;29;20129;-66
2022/05/29 07:17:11;;;;;;;10.02;4.28;;;14.50;99.90;;;15.02;75.26;101574.25;4841361;29;20058;-66
2022/05/29 07:19:41;;;;;;;10.80;4.13;;;14.70;99.90;;;14.63;73.91;101564.06;4841752;29;20054;-66
2022/05/29 07:22:11;;;;;;;11.73;4.55;;;14.50;99.90;;;14.87;73.56;101570.88;4841250;29;20500;-66
2022/05/29 07:24:43;;;;;;;11.18;4.72;;;14.60;99.90;;;14.73;74.20;101572.84;4843147;29;20565;-66
2022/05/29 07:27:13;;;;;;;11.00;4.82;;;14.50;99.90;;;14.66;74.62;101574.66;4845413;29;20094;-66
2022/05/29 07:29:42;;;;;;;12.43;5.03;;;14.40;99.90;;;14.48;73.34;101561.50;4845210;29;20093;-66
2022/05/29 07:32:12;;;;;;;13.75;4.70;;;14.40;99.90;;;14.27;73.77;101570.56;4845017;29;20094;-66
2022/05/29 07:34:43;;;;;;;11.05;4.47;;;14.10;99.90;;;14.48;73.82;101574.81;4844888;29;20189;-65
2022/05/29 07:37:15;;;;;;;12.18;4.60;;;14.20;99.90;;;14.46;73.09;101568.63;4844908;29;20050;-66
2022/05/29 07:39:47;;;;;;;11.20;4.45;;;14.30;99.90;;;14.50;73.61;101558.88;4844888;29;20046;-66
2022/05/29 07:45:05;;;;;;;12.57;4.53;;;14.30;99.90;;;14.45;72.55;101545.59;4845370;29;20133;-66
2022/05/29 07:47:38;;;;;;;14.93;4.75;;;14.40;99.90;;;14.57;72.28;101558.78;4845019;29;20062;-66
2022/05/29 07:50:09;;;;;;;14.07;4.78;;;14.40;99.90;;;14.52;72.29;101567.72;4844634;29;20042;-66
2022/05/29 07:52:38;;;;;;;10.00;4.63;;;14.30;99.90;;;14.43;72.26;101561.56;4844495;29;20077;-66
2022/05/29 07:55:07;;;;;;;21.67;4.80;;;14.20;99.90;;;14.63;71.41;101564.06;4844405;29;20042;-66
2022/05/29 07:57:39;;;;;;;18.33;4.60;;;14.30;99.90;;;14.16;70.86;101441.16;4844491;29;20062;-66
2022/05/29 08:00:12;;;;;;;8.88;4.40;;;14.50;99.90;;;14.69;71.59;101547.13;4844435;29;20121;-66
2022/05/29 08:02:41;;;;;;;11.55;4.70;;;14.50;99.90;;;14.70;73.28;101564.84;4844468;29;20054;-67
2022/05/29 08:05:12;;;;;;;15.02;5.05;;;14.40;99.90;;;14.59;73.16;101562.31;4844503;29;20057;-66
2022/05/29 08:07:42;;;;;;;13.55;5.18;;;14.40;99.90;;;14.51;73.74;101557.94;4844381;29;20445;-66
2022/05/29 08:10:12;;;;;;;14.73;4.70;;;14.30;99.90;;;14.80;73.38;101556.78;4844090;29;20414;-66
2022/05/29 08:12:42;;;;;;;11.30;5.10;;;14.50;99.90;;;14.99;73.40;101560.09;4844040;29;20140;-66
2022/05/29 08:15:11;;;;;;;9.80;4.25;;;14.70;99.90;;;15.00;72.66;101546.75;4844082;29;20125;-66
2022/05/29 08:17:41;;;;;;;8.05;4.10;;;14.90;99.90;;;15.15;71.71;101567.03;4843952;29;20160;-66
2022/05/29 08:20:12;;;;;;;9.93;4.40;;;14.90;99.90;;;15.06;70.96;101568.00;4844187;29;20050;-66
2022/05/29 08:22:41;;;;;;;11.13;4.25;;;14.90;99.90;;;15.22;70.14;101566.94;4844380;29;20075;-66
2022/05/29 08:30:53;;;;;;;12.38;3.97;;;15.10;99.90;;;15.50;69.35;101566.63;4792054;29;20150;-66
2022/05/29 08:33:24;;;;;;;9.35;3.85;;;15.30;99.90;;;15.58;68.31;101567.41;4844059;29;20068;-66
2022/05/29 08:36:00;;;;;;;8.10;3.58;;;15.40;99.90;;;15.47;66.18;101561.31;4843887;29;20122;-66
2022/05/29 08:38:30;;;;;;;7.28;3.80;;;15.40;99.90;;;15.32;66.76;101533.94;4843980;29;20050;-66
2022/05/29 08:41:02;;;;;;;8.18;4.00;;;15.30;99.90;;;15.43;66.65;101568.47;4843489;29;20051;-66
2022/05/29 08:43:36;;;;;;;9.35;3.60;;;15.30;99.90;;;15.57;67.59;101560.28;4843386;29;20042;-67
2022/05/29 08:46:09;;;;;;;11.32;4.45;;;15.30;99.90;;;15.61;66.38;101559.34;4843827;29;20069;-66
2022/05/29 08:48:38;;;;;;;7.18;3.78;;;15.30;99.90;;;15.58;66.25;101580.72;4843703;29;20056;-66
2022/05/29 08:51:22;;;;;;;13.40;4.45;;;15.40;99.90;;;15.49;67.47;101565.72;4843228;29;20457;-67
2022/05/29 08:54:10;;;;;;;9.15;4.13;;;15.30;99.90;;;15.43;67.00;101567.59;4843413;29;20070;-66
2022/05/29 08:56:46;;;;;;;5.40;3.53;;;15.20;99.90;;;15.67;66.39;101575.25;4843150;29;20070;-66
2022/05/29 08:59:30;;;;;;;5.63;3.75;;;15.40;99.90;;;15.84;66.82;101571.44;4843331;29;20103;-67
2022/05/29 09:02:10;;;;;;;7.90;3.95;;;15.60;99.90;;;15.46;67.34;101571.13;4843131;29;20049;-67
2022/05/29 09:04:46;;;;;;;8.02;3.85;;;15.30;99.90;;;15.64;66.79;101567.31;4843433;29;20130;-67
2022/05/29 09:07:18;;;;;;;7.55;3.90;;;15.40;99.90;;;15.80;65.51;101572.41;4841993;29;20471;-67
2022/05/29 09:09:53;;;;;;;7.50;3.88;;;15.50;99.90;;;15.20;65.43;101467.44;4843407;29;20472;-66
2022/05/29 09:12:28;;;;;;;4.40;3.45;;;15.60;99.90;;;15.66;64.20;101560.19;4843664;29;20096;-67
2022/05/29 09:15:03;;;;;;;4.95;3.17;;;15.50;99.90;;;15.77;65.27;101559.13;4843035;29;20132;-67
2022/05/29 09:17:38;;;;;;;5.32;3.03;;;15.60;99.90;;;15.86;64.89;101568.75;4842909;29;20123;-67
2022/05/29 09:20:13;;;;;;;3.22;2.90;;;15.60;99.90;;;15.86;64.34;101563.41;4843263;29;20049;-67
2022/05/29 09:22:44;;;;;;;5.22;2.97;;;15.70;99.90;;;15.89;64.07;101566.06;4842756;29;20558;-67
2022/05/29 09:25:24;;;;;;;8.05;3.35;;;15.70;99.90;;;15.34;64.30;101486.81;4842734;29;20053;-67
2022/05/29 09:27:52;;;;;;;4.78;3.00;;;15.60;99.90;;;15.78;63.95;101576.88;4842862;29;20382;-67
2022/05/29 09:30:22;;;;;;;4.60;3.10;;;15.60;99.90;;;15.93;64.15;101565.97;4842593;29;20060;-67
2022/05/29 09:32:53;;;;;;;5.57;3.28;;;15.70;99.90;;;15.97;64.56;101549.00;4842512;29;20153;-67
2022/05/29 09:35:30;;;;;;;4.13;3.40;;;15.80;99.90;;;16.13;64.03;101553.19;4842948;29;20072;-67
2022/05/29 09:38:07;;;;;;;5.45;3.28;;;15.90;99.90;;;16.16;64.29;101560.28;4841329;29;20045;-67
2022/05/29 09:40:43;;;;;;;6.25;3.45;;;15.90;99.90;;;16.08;63.50;101564.88;4842564;29;20059;-67
2022/05/29 09:43:18;;;;;;;5.15;3.50;;;15.90;99.90;;;16.17;64.14;101567.38;4842521;29;20475;-66
2022/05/29 09:45:47;;;;;;;7.78;3.45;;;15.90;99.90;;;16.19;64.62;101560.22;4842588;29;20050;-67
2022/05/29 09:51:18;;;;;;;9.80;3.78;;;15.90;99.90;;;16.25;65.54;101562.81;4842547;29;20194;-67
2022/05/29 09:53:53;;;;;;;3.85;3.38;;;16.00;99.90;;;15.93;65.44;101562.44;4842702;29;20123;-67
2022/05/29 09:56:28;;;;;;;7.22;3.42;;;15.80;99.90;;;15.36;65.00;101458.34;4842442;29;20141;-66
2022/05/29 09:59:00;;;;;;;6.60;3.72;;;15.70;99.90;;;15.99;65.52;101565.88;4842667;29;20054;-67
2022/05/29 10:01:34;;;;;;;7.55;3.25;;;15.70;99.90;;;16.04;64.66;101561.38;4842576;29;20065;-66
2022/05/29 10:04:05;;;;;;;3.58;3.28;;;15.80;99.90;;;16.03;64.27;101562.25;4842762;29;20046;-66
2022/05/29 10:06:42;;;;;;;6.57;3.35;;;15.80;99.90;;;16.17;63.75;101554.03;4842363;29;20046;-66
2022/05/29 10:09:17;;;;;;;6.13;3.22;;;15.90;99.90;;;16.42;64.40;101550.03;4841313;29;20057;-67
2022/05/29 10:11:48;;;;;;;4.40;3.05;;;16.20;99.90;;;16.62;63.89;101553.28;4842355;29;20118;-67
2022/05/29 10:14:36;;;;;;;6.25;3.25;;;16.40;99.90;;;16.71;61.55;101542.41;4841415;29;20492;-67
2022/05/29 10:17:16;;;;;;;5.82;3.17;;;16.50;99.90;;;16.80;62.32;101541.38;4842412;29;20050;-67
2022/05/29 10:19:47;;;;;;;6.35;3.00;;;16.70;99.90;;;16.47;61.40;101445.81;4842674;29;20074;-67
2022/05/29 10:22:22;;;;;;;5.20;3.25;;;16.80;99.90;;;17.13;61.29;101560.28;4842711;29;20077;-67
2022/05/29 10:24:51;;;;;;;7.63;3.40;;;16.90;99.90;;;17.09;61.97;101553.25;4842023;29;20169;-67
2022/05/29 10:27:30;;;;;;;6.72;3.10;;;16.90;99.90;;;16.87;63.70;101535.00;4841990;29;20441;-67
2022/05/29 10:30:03;;;;;;;5.20;3.60;;;16.90;99.90;;;16.94;65.01;101555.31;4842035;29;20121;-67
2022/05/29 10:32:37;;;;;;;6.10;3.97;;;16.70;99.90;;;16.91;66.03;101558.97;4840759;29;20069;-66
2022/05/29 10:35:19;;;;;;;7.80;3.55;;;16.70;99.90;;;16.83;67.45;101558.22;4841704;29;20094;-66
2022/05/29 10:37:48;;;;;;;11.05;4.20;;;16.60;99.90;;;16.80;67.02;101550.25;4841769;29;20073;-68
2022/05/29 10:40:24;;;;;;;8.90;3.70;;;16.50;99.90;;;16.69;66.94;101549.59;4842072;29;20141;-67
2022/05/29 10:42:55;;;;;;;7.63;3.97;;;16.60;99.90;;;16.72;66.82;101551.31;4841822;29;20454;-67
2022/05/29 10:45:27;;;;;;;8.55;4.20;;;16.50;99.90;;;16.66;67.00;101557.66;4840502;29;20479;-67
2022/05/29 10:48:26;;;;;;;10.07;3.80;;;16.40;99.90;;;16.80;65.62;101552.91;4841822;29;20118;-67
2022/05/29 10:51:19;;;;;;;8.43;3.90;;;16.60;99.90;;;16.82;64.71;101551.09;4841552;29;20042;-67
2022/05/29 10:54:13;;;;;;;8.75;4.07;;;16.50;99.90;;;16.76;63.49;101553.88;4841893;29;20058;-67
2022/05/29 10:57:13;;;;;;;7.18;3.33;;;16.50;99.90;;;16.88;63.18;101551.00;4841486;29;20411;-67
2022/05/29 11:00:07;;;;;;;9.68;3.95;;;16.60;99.90;;;16.85;63.75;101563.53;4840736;29;20427;-67
2022/05/29 11:06:13;;;;;;;10.35;4.32;;;16.50;99.90;;;16.73;63.55;101566.44;4841225;29;20086;-66
2022/05/29 11:08:58;;;;;;;11.27;4.32;;;16.50;99.90;;;16.81;63.67;101562.72;4841346;29;20073;-66